Terminal Aerodrome Forecast
Issued by NWS

Home | Current Version | Previous Version | Text Only | Print | Product List | Glossary On
Versions: 1 2 3 4 5 6 7 8 9 10 11 12 13 14 15 16
000
FTUS41 KLWX 062327
TAFMTN
TAF
KMTN 062327Z 0700/0724 17006KT P6SM SHRA VCTS BKN090CB
      TEMPO 0700/0702 18012G22KT 3SM -TSRA BKN040CB
     FM070200 12004KT P6SM BKN040
     FM070900 17004KT P6SM SCT090
     FM071800 17008KT P6SM FEW040 SCT150
      AMD NOT SKED 0702/0712=

USA.gov is the U.S. government's official web portal to all federal, state and local government web resources and services.